Peterson AFB, Colorado
Current Conditions -  °F | °C
As of 4:54 AM on Saturday 20 Dec 2014 (Local Time) from KCOS Reporting Station
Broken Clouds Broken Clouds  
Wind Chill: 15°   Ceiling: 22000
Heat Index: 24°   Visibility: 10mi
Dew Point: 15°   Wind: 8mph
Humidity: 69%   Direction: 10°N
Pressure: 30.03"   Gusts: NA
Location:  38.8076°N, 104.704°W
Report Text: KCOS 201154Z 01007KT 10SM BKN220 M04/M09 A3003 RMK AO2 SLP202 T10441094 11022 21061 58001
Loading
Personal Weather Stations






























Interactive Weather Map New forecast layout! Learn more

10-Day Weather Forecast

Advertisements
Track Severe Weather on mobile